sensor_id;sensor_type;location;lat;lon;timestamp;temperature;humidity
1534;DHT22;760;48.822;9.304;2022-08-06T04:04:15;18.60;99.90
1534;DHT22;760;48.822;9.304;2022-08-06T04:06:42;18.50;99.90
1534;DHT22;760;48.822;9.304;2022-08-06T04:09:09;18.50;99.90
1534;DHT22;760;48.822;9.304;2022-08-06T04:11:35;18.50;99.90
1534;DHT22;760;48.822;9.304;2022-08-06T04:14:02;18.50;99.90
1534;DHT22;760;48.822;9.304;2022-08-06T04:16:28;18.50;99.90
1534;DHT22;760;48.822;9.304;2022-08-06T04:18:56;18.50;99.90
1534;DHT22;760;48.822;9.304;2022-08-06T04:21:23;18.40;99.90
1534;DHT22;760;48.822;9.304;2022-08-06T04:23:50;18.40;99.90
1534;DHT22;760;48.822;9.304;2022-08-06T04:26:18;18.50;99.90
1534;DHT22;760;48.822;9.304;2022-08-06T04:28:49;18.40;99.90
1534;DHT22;760;48.822;9.304;2022-08-06T04:31:17;18.40;99.90
1534;DHT22;760;48.822;9.304;2022-08-06T04:33:44;18.50;99.90
1534;DHT22;760;48.822;9.304;2022-08-06T04:36:10;18.50;99.90
1534;DHT22;760;48.822;9.304;2022-08-06T04:38:37;18.50;99.90
1534;DHT22;760;48.822;9.304;2022-08-06T04:41:03;18.50;99.90
1534;DHT22;760;48.822;9.304;2022-08-06T04:43:30;18.40;99.90
1534;DHT22;760;48.822;9.304;2022-08-06T04:45:56;18.40;99.90
1534;DHT22;760;48.822;9.304;2022-08-06T04:48:23;18.50;99.90
1534;DHT22;760;48.822;9.304;2022-08-06T04:50:49;18.50;99.90
1534;DHT22;760;48.822;9.304;2022-08-06T04:53:17;18.50;99.90
1534;DHT22;760;48.822;9.304;2022-08-06T04:55:44;18.50;99.90
1534;DHT22;760;48.822;9.304;2022-08-06T04:58:12;18.40;99.90
1534;DHT22;760;48.822;9.304;2022-08-06T05:00:40;18.40;99.90
1534;DHT22;760;48.822;9.304;2022-08-06T05:03:06;18.50;99.90
1534;DHT22;760;48.822;9.304;2022-08-06T05:05:47;18.50;99.90
1534;DHT22;760;48.822;9.304;2022-08-06T05:08:14;18.40;99.90
1534;DHT22;760;48.822;9.304;2022-08-06T05:10:53;18.40;99.90
1534;DHT22;760;48.822;9.304;2022-08-06T05:13:21;18.30;99.90
1534;DHT22;760;48.822;9.304;2022-08-06T05:15:51;18.40;99.90
1534;DHT22;760;48.822;9.304;2022-08-06T05:18:26;18.40;99.90
1534;DHT22;760;48.822;9.304;2022-08-06T05:20:55;18.40;99.90
1534;DHT22;760;48.822;9.304;2022-08-06T05:23:39;18.40;99.90
1534;DHT22;760;48.822;9.304;2022-08-06T05:26:06;18.50;99.90
1534;DHT22;760;48.822;9.304;2022-08-06T05:28:32;18.60;99.90
1534;DHT22;760;48.822;9.304;2022-08-06T05:30:58;18.70;99.90
1534;DHT22;760;48.822;9.304;2022-08-06T05:33:32;18.70;99.90
1534;DHT22;760;48.822;9.304;2022-08-06T05:35:59;18.70;99.90
1534;DHT22;760;48.822;9.304;2022-08-06T05:38:25;18.70;99.90
1534;DHT22;760;48.822;9.304;2022-08-06T05:40:52;18.70;99.90
1534;DHT22;760;48.822;9.304;2022-08-06T05:43:18;18.70;99.90
1534;DHT22;760;48.822;9.304;2022-08-06T05:45:47;18.70;99.90
1534;DHT22;760;48.822;9.304;2022-08-06T05:48:14;18.70;99.90
1534;DHT22;760;48.822;9.304;2022-08-06T05:50:47;18.70;99.90
1534;DHT22;760;48.822;9.304;2022-08-06T05:53:40;18.70;99.90
1534;DHT22;760;48.822;9.304;2022-08-06T05:56:11;18.70;99.90
1534;DHT22;760;48.822;9.304;2022-08-06T05:58:59;18.60;99.90
1534;DHT22;760;48.822;9.304;2022-08-06T06:01:25;18.60;99.90
1534;DHT22;760;48.822;9.304;2022-08-06T06:03:52;18.60;99.90
1534;DHT22;760;48.822;9.304;2022-08-06T06:06:22;18.60;99.90
1534;DHT22;760;48.822;9.304;2022-08-06T06:08:48;18.70;99.90
1534;DHT22;760;48.822;9.304;2022-08-06T06:11:14;18.80;99.90
1534;DHT22;760;48.822;9.304;2022-08-06T06:13:42;18.90;99.90
1534;DHT22;760;48.822;9.304;2022-08-06T06:18:54;19.00;99.90
1534;DHT22;760;48.822;9.304;2022-08-06T06:21:41;19.10;99.90
1534;DHT22;760;48.822;9.304;2022-08-06T06:24:17;19.20;99.90
1534;DHT22;760;48.822;9.304;2022-08-06T06:27:07;19.20;99.90
1534;DHT22;760;48.822;9.304;2022-08-06T06:34:53;19.30;99.90
1534;DHT22;760;48.822;9.304;2022-08-06T06:42:44;19.50;99.90
1534;DHT22;760;48.822;9.304;2022-08-06T06:45:15;19.70;99.90
1534;DHT22;760;48.822;9.304;2022-08-06T06:47:55;19.80;99.90
1534;DHT22;760;48.822;9.304;2022-08-06T06:50:26;19.90;99.90
1534;DHT22;760;48.822;9.304;2022-08-06T06:52:53;20.00;99.90
1534;DHT22;760;48.822;9.304;2022-08-06T06:55:31;20.20;99.60
1534;DHT22;760;48.822;9.304;2022-08-06T06:58:40;20.20;99.30
1534;DHT22;760;48.822;9.304;2022-08-06T07:01:06;20.20;99.00
1534;DHT22;760;48.822;9.304;2022-08-06T07:03:34;20.10;99.40
1534;DHT22;760;48.822;9.304;2022-08-06T07:06:03;20.10;99.40
1534;DHT22;760;48.822;9.304;2022-08-06T07:08:32;20.20;99.60
1534;DHT22;760;48.822;9.304;2022-08-06T07:10:59;20.30;99.10
1534;DHT22;760;48.822;9.304;2022-08-06T07:13:27;20.40;98.80
1534;DHT22;760;48.822;9.304;2022-08-06T07:15:53;20.40;98.80
1534;DHT22;760;48.822;9.304;2022-08-06T07:18:20;20.60;98.70
1534;DHT22;760;48.822;9.304;2022-08-06T07:20:47;20.70;98.00
1534;DHT22;760;48.822;9.304;2022-08-06T07:23:14;20.80;98.00
1534;DHT22;760;48.822;9.304;2022-08-06T07:25:43;20.80;97.90
1534;DHT22;760;48.822;9.304;2022-08-06T07:28:11;21.00;97.50
1534;DHT22;760;48.822;9.304;2022-08-06T07:30:40;21.00;97.50
1534;DHT22;760;48.822;9.304;2022-08-06T07:33:07;21.00;97.30
1534;DHT22;760;48.822;9.304;2022-08-06T07:35:35;21.00;97.10
1534;DHT22;760;48.822;9.304;2022-08-06T07:38:03;20.90;97.10
1534;DHT22;760;48.822;9.304;2022-08-06T07:40:42;20.90;97.10
1534;DHT22;760;48.822;9.304;2022-08-06T07:43:13;21.00;97.10
1534;DHT22;760;48.822;9.304;2022-08-06T07:45:40;21.10;97.00
1534;DHT22;760;48.822;9.304;2022-08-06T07:48:09;21.30;96.90
1534;DHT22;760;48.822;9.304;2022-08-06T07:50:35;21.50;96.60
1534;DHT22;760;48.822;9.304;2022-08-06T07:53:02;21.80;96.00
1534;DHT22;760;48.822;9.304;2022-08-06T07:55:28;22.30;95.30
1534;DHT22;760;48.822;9.304;2022-08-06T07:57:56;22.90;94.30
1534;DHT22;760;48.822;9.304;2022-08-06T08:00:23;23.40;93.40
1534;DHT22;760;48.822;9.304;2022-08-06T08:02:53;24.00;92.30
1534;DHT22;760;48.822;9.304;2022-08-06T08:05:38;24.60;91.50
1534;DHT22;760;48.822;9.304;2022-08-06T08:08:24;25.30;90.60
1534;DHT22;760;48.822;9.304;2022-08-06T08:10:52;26.20;87.40
1534;DHT22;760;48.822;9.304;2022-08-06T08:13:20;26.10;84.80
1534;DHT22;760;48.822;9.304;2022-08-06T08:15:47;25.80;85.00
1534;DHT22;760;48.822;9.304;2022-08-06T08:20:41;25.50;86.20
1534;DHT22;760;48.822;9.304;2022-08-06T08:23:09;25.70;85.60
1534;DHT22;760;48.822;9.304;2022-08-06T08:25:37;26.30;83.70
1534;DHT22;760;48.822;9.304;2022-08-06T08:28:03;26.90;80.80
1534;DHT22;760;48.822;9.304;2022-08-06T08:30:30;27.40;80.50
1534;DHT22;760;48.822;9.304;2022-08-06T08:32:56;28.10;77.30
1534;DHT22;760;48.822;9.304;2022-08-06T08:35:21;28.60;74.30
1534;DHT22;760;48.822;9.304;2022-08-06T08:37:47;28.70;73.30
1534;DHT22;760;48.822;9.304;2022-08-06T08:40:13;28.90;72.80
1534;DHT22;760;48.822;9.304;2022-08-06T08:42:48;29.30;71.20
1534;DHT22;760;48.822;9.304;2022-08-06T08:45:15;29.50;69.70
1534;DHT22;760;48.822;9.304;2022-08-06T08:47:49;29.70;67.20
1534;DHT22;760;48.822;9.304;2022-08-06T08:50:17;29.80;66.50
1534;DHT22;760;48.822;9.304;2022-08-06T08:52:44;29.60;67.40
1534;DHT22;760;48.822;9.304;2022-08-06T08:55:12;29.30;67.20
1534;DHT22;760;48.822;9.304;2022-08-06T08:57:38;28.80;67.70
1534;DHT22;760;48.822;9.304;2022-08-06T09:00:05;28.00;69.00
1534;DHT22;760;48.822;9.304;2022-08-06T09:02:31;27.50;71.70
1534;DHT22;760;48.822;9.304;2022-08-06T09:04:58;27.80;71.20
1534;DHT22;760;48.822;9.304;2022-08-06T09:07:24;27.60;70.00
1534;DHT22;760;48.822;9.304;2022-08-06T09:09:52;27.40;69.90
1534;DHT22;760;48.822;9.304;2022-08-06T09:12:19;27.20;69.20
1534;DHT22;760;48.822;9.304;2022-08-06T09:14:45;27.10;70.40
1534;DHT22;760;48.822;9.304;2022-08-06T09:17:11;27.40;70.10
1534;DHT22;760;48.822;9.304;2022-08-06T09:19:38;28.10;69.40
1534;DHT22;760;48.822;9.304;2022-08-06T09:22:03;28.20;68.50
1534;DHT22;760;48.822;9.304;2022-08-06T09:24:29;27.80;68.30
1534;DHT22;760;48.822;9.304;2022-08-06T09:27:05;27.10;69.20
1534;DHT22;760;48.822;9.304;2022-08-06T09:29:31;26.30;70.60
1534;DHT22;760;48.822;9.304;2022-08-06T09:31:57;25.70;71.20
1534;DHT22;760;48.822;9.304;2022-08-06T09:34:38;25.10;73.10
1534;DHT22;760;48.822;9.304;2022-08-06T09:37:04;24.70;75.20
1534;DHT22;760;48.822;9.304;2022-08-06T09:39:38;24.30;75.60
1534;DHT22;760;48.822;9.304;2022-08-06T09:42:07;24.30;77.50
1534;DHT22;760;48.822;9.304;2022-08-06T09:44:34;25.10;76.50
1534;DHT22;760;48.822;9.304;2022-08-06T09:47:00;25.50;74.80
1534;DHT22;760;48.822;9.304;2022-08-06T09:49:26;25.60;74.10
1534;DHT22;760;48.822;9.304;2022-08-06T09:54:37;25.50;73.70
1534;DHT22;760;48.822;9.304;2022-08-06T09:57:03;25.10;73.90
1534;DHT22;760;48.822;9.304;2022-08-06T09:59:42;24.90;74.90
1534;DHT22;760;48.822;9.304;2022-08-06T10:02:15;24.80;75.60
1534;DHT22;760;48.822;9.304;2022-08-06T10:04:43;24.70;74.70
1534;DHT22;760;48.822;9.304;2022-08-06T10:07:09;24.70;75.00
1534;DHT22;760;48.822;9.304;2022-08-06T10:09:35;24.80;75.20
1534;DHT22;760;48.822;9.304;2022-08-06T10:12:16;25.10;75.30
1534;DHT22;760;48.822;9.304;2022-08-06T10:14:43;25.20;75.20
1534;DHT22;760;48.822;9.304;2022-08-06T10:17:19;25.10;75.10
1534;DHT22;760;48.822;9.304;2022-08-06T10:19:47;25.00;75.50
1534;DHT22;760;48.822;9.304;2022-08-06T10:22:17;24.80;75.80
1534;DHT22;760;48.822;9.304;2022-08-06T10:24:45;24.70;77.00
1534;DHT22;760;48.822;9.304;2022-08-06T10:27:13;24.50;76.10
1534;DHT22;760;48.822;9.304;2022-08-06T10:29:53;24.30;76.90
1534;DHT22;760;48.822;9.304;2022-08-06T10:35:02;24.00;76.50
1534;DHT22;760;48.822;9.304;2022-08-06T10:37:28;23.90;76.40
1534;DHT22;760;48.822;9.304;2022-08-06T10:39:58;23.90;77.50
1534;DHT22;760;48.822;9.304;2022-08-06T10:42:26;24.50;78.60
1534;DHT22;760;48.822;9.304;2022-08-06T10:44:52;25.50;75.30
1534;DHT22;760;48.822;9.304;2022-08-06T10:47:19;26.40;72.20
1534;DHT22;760;48.822;9.304;2022-08-06T10:49:46;27.20;70.70
1534;DHT22;760;48.822;9.304;2022-08-06T10:52:13;27.90;67.70
1534;DHT22;760;48.822;9.304;2022-08-06T10:54:40;28.70;66.10
1534;DHT22;760;48.822;9.304;2022-08-06T10:57:07;29.50;62.50
1534;DHT22;760;48.822;9.304;2022-08-06T10:59:34;30.20;60.00
1534;DHT22;760;48.822;9.304;2022-08-06T11:05:00;31.50;57.60
1534;DHT22;760;48.822;9.304;2022-08-06T11:15:56;29.10;59.10
1534;DHT22;760;48.822;9.304;2022-08-06T11:18:22;28.40;59.70
1534;DHT22;760;48.822;9.304;2022-08-06T11:20:52;27.70;60.90
1534;DHT22;760;48.822;9.304;2022-08-06T11:23:27;27.10;62.30
1534;DHT22;760;48.822;9.304;2022-08-06T11:26:00;26.70;63.70
1534;DHT22;760;48.822;9.304;2022-08-06T11:30:57;26.20;65.50
1534;DHT22;760;48.822;9.304;2022-08-06T11:36:04;25.90;66.20
1534;DHT22;760;48.822;9.304;2022-08-06T11:41:09;26.00;65.70
1534;DHT22;760;48.822;9.304;2022-08-06T11:51:52;26.00;67.70
1534;DHT22;760;48.822;9.304;2022-08-06T11:59:38;25.90;68.40
1534;DHT22;760;48.822;9.304;2022-08-06T12:02:12;25.90;67.50
1534;DHT22;760;48.822;9.304;2022-08-06T12:04:43;25.80;67.00
1534;DHT22;760;48.822;9.304;2022-08-06T12:07:15;25.70;65.70
1534;DHT22;760;48.822;9.304;2022-08-06T12:10:09;25.50;67.40
1534;DHT22;760;48.822;9.304;2022-08-06T12:12:37;25.40;68.10
1534;DHT22;760;48.822;9.304;2022-08-06T12:17:58;25.30;67.90
1534;DHT22;760;48.822;9.304;2022-08-06T12:20:43;25.30;67.20
1534;DHT22;760;48.822;9.304;2022-08-06T12:23:12;25.20;67.50
1534;DHT22;760;48.822;9.304;2022-08-06T12:25:46;25.20;68.60
1534;DHT22;760;48.822;9.304;2022-08-06T12:28:16;25.20;69.00
1534;DHT22;760;48.822;9.304;2022-08-06T12:30:51;25.30;67.40
1534;DHT22;760;48.822;9.304;2022-08-06T12:33:18;25.40;67.20
1534;DHT22;760;48.822;9.304;2022-08-06T12:35:59;25.50;68.10
1534;DHT22;760;48.822;9.304;2022-08-06T12:38:28;25.60;66.20
1534;DHT22;760;48.822;9.304;2022-08-06T12:40:57;25.90;65.70
1534;DHT22;760;48.822;9.304;2022-08-06T12:43:23;26.00;64.50
1534;DHT22;760;48.822;9.304;2022-08-06T12:45:57;26.10;63.90
1534;DHT22;760;48.822;9.304;2022-08-06T12:48:22;26.00;64.50
1534;DHT22;760;48.822;9.304;2022-08-06T12:50:48;25.80;64.80
1534;DHT22;760;48.822;9.304;2022-08-06T12:53:16;25.50;65.50
1534;DHT22;760;48.822;9.304;2022-08-06T12:55:46;25.20;66.80
1534;DHT22;760;48.822;9.304;2022-08-06T12:58:18;25.00;67.00
1534;DHT22;760;48.822;9.304;2022-08-06T13:00:48;24.90;67.00
1534;DHT22;760;48.822;9.304;2022-08-06T13:03:15;25.00;66.90
1534;DHT22;760;48.822;9.304;2022-08-06T13:05:43;25.00;68.00
1534;DHT22;760;48.822;9.304;2022-08-06T13:08:10;25.10;67.10
1534;DHT22;760;48.822;9.304;2022-08-06T13:10:36;25.00;66.30
1534;DHT22;760;48.822;9.304;2022-08-06T13:13:04;24.90;65.80
1534;DHT22;760;48.822;9.304;2022-08-06T13:15:31;24.80;65.50
1534;DHT22;760;48.822;9.304;2022-08-06T13:18:05;24.80;66.70
1534;DHT22;760;48.822;9.304;2022-08-06T13:20:42;24.80;66.30
1534;DHT22;760;48.822;9.304;2022-08-06T13:23:09;24.80;65.70
1534;DHT22;760;48.822;9.304;2022-08-06T13:25:49;24.80;65.90
1534;DHT22;760;48.822;9.304;2022-08-06T13:28:20;24.90;66.00
1534;DHT22;760;48.822;9.304;2022-08-06T13:30:46;24.80;66.00
1534;DHT22;760;48.822;9.304;2022-08-06T13:33:21;24.80;65.80
1534;DHT22;760;48.822;9.304;2022-08-06T13:35:51;24.80;65.60
1534;DHT22;760;48.822;9.304;2022-08-06T13:38:34;24.70;67.30
1534;DHT22;760;48.822;9.304;2022-08-06T13:41:01;24.80;69.30
1534;DHT22;760;48.822;9.304;2022-08-06T13:43:39;25.00;68.90
1534;DHT22;760;48.822;9.304;2022-08-06T13:46:16;25.20;66.80
1534;DHT22;760;48.822;9.304;2022-08-06T13:48:46;25.40;65.40
1534;DHT22;760;48.822;9.304;2022-08-06T13:51:14;25.40;64.70
1534;DHT22;760;48.822;9.304;2022-08-06T13:53:40;25.30;64.70
1534;DHT22;760;48.822;9.304;2022-08-06T13:56:06;25.20;64.70
1534;DHT22;760;48.822;9.304;2022-08-06T13:58:31;25.10;65.10
1534;DHT22;760;48.822;9.304;2022-08-06T14:00:57;25.00;65.10
1534;DHT22;760;48.822;9.304;2022-08-06T14:03:23;25.00;65.70
1534;DHT22;760;48.822;9.304;2022-08-06T14:05:50;25.10;64.50
1534;DHT22;760;48.822;9.304;2022-08-06T14:08:16;25.10;65.00
1534;DHT22;760;48.822;9.304;2022-08-06T14:10:41;25.20;66.00
1534;DHT22;760;48.822;9.304;2022-08-06T14:13:07;25.20;64.80
1534;DHT22;760;48.822;9.304;2022-08-06T14:15:46;25.20;63.70
1534;DHT22;760;48.822;9.304;2022-08-06T14:18:13;25.30;65.10
1534;DHT22;760;48.822;9.304;2022-08-06T14:20:39;25.30;63.80
1534;DHT22;760;48.822;9.304;2022-08-06T14:23:05;25.30;62.60
1534;DHT22;760;48.822;9.304;2022-08-06T14:25:31;25.40;64.10
1534;DHT22;760;48.822;9.304;2022-08-06T14:27:56;25.40;62.80
1534;DHT22;760;48.822;9.304;2022-08-06T14:30:23;25.50;62.50
1534;DHT22;760;48.822;9.304;2022-08-06T14:32:49;25.50;61.30
1534;DHT22;760;48.822;9.304;2022-08-06T14:35:16;25.40;61.90
1534;DHT22;760;48.822;9.304;2022-08-06T14:37:42;25.30;62.00
1534;DHT22;760;48.822;9.304;2022-08-06T14:40:09;25.20;62.60
1534;DHT22;760;48.822;9.304;2022-08-06T14:42:35;25.20;62.90
1534;DHT22;760;48.822;9.304;2022-08-06T14:45:19;25.30;63.00
1534;DHT22;760;48.822;9.304;2022-08-06T14:47:45;25.30;63.10
1534;DHT22;760;48.822;9.304;2022-08-06T14:50:10;25.30;65.60
1534;DHT22;760;48.822;9.304;2022-08-06T14:52:36;25.40;64.80
1534;DHT22;760;48.822;9.304;2022-08-06T14:55:02;25.50;62.20
1534;DHT22;760;48.822;9.304;2022-08-06T14:57:28;25.50;61.20
1534;DHT22;760;48.822;9.304;2022-08-06T14:59:53;25.50;60.90
1534;DHT22;760;48.822;9.304;2022-08-06T15:02:20;25.40;61.00
1534;DHT22;760;48.822;9.304;2022-08-06T15:04:46;25.40;60.40
1534;DHT22;760;48.822;9.304;2022-08-06T15:07:12;25.30;60.40
1534;DHT22;760;48.822;9.304;2022-08-06T15:09:38;25.30;60.00
1534;DHT22;760;48.822;9.304;2022-08-06T15:12:05;25.30;60.60
1534;DHT22;760;48.822;9.304;2022-08-06T15:14:31;25.30;59.80
1534;DHT22;760;48.822;9.304;2022-08-06T15:16:57;25.30;59.80
1534;DHT22;760;48.822;9.304;2022-08-06T15:19:22;25.30;59.50
1534;DHT22;760;48.822;9.304;2022-08-06T15:21:48;25.30;59.70
1534;DHT22;760;48.822;9.304;2022-08-06T15:24:14;25.30;59.80
1534;DHT22;760;48.822;9.304;2022-08-06T15:26:40;25.30;60.80
1534;DHT22;760;48.822;9.304;2022-08-06T15:29:06;25.30;60.80
1534;DHT22;760;48.822;9.304;2022-08-06T15:31:32;25.20;60.60
1534;DHT22;760;48.822;9.304;2022-08-06T15:33:59;25.20;60.20
1534;DHT22;760;48.822;9.304;2022-08-06T15:36:25;25.30;61.00
1534;DHT22;760;48.822;9.304;2022-08-06T15:38:51;25.30;61.20
1534;DHT22;760;48.822;9.304;2022-08-06T15:41:19;25.30;60.90
1534;DHT22;760;48.822;9.304;2022-08-06T15:43:45;25.20;61.10
1534;DHT22;760;48.822;9.304;2022-08-06T15:46:11;25.20;60.90
1534;DHT22;760;48.822;9.304;2022-08-06T15:48:38;25.20;60.20
1534;DHT22;760;48.822;9.304;2022-08-06T15:51:04;25.20;60.20
1534;DHT22;760;48.822;9.304;2022-08-06T15:53:30;25.20;59.90
1534;DHT22;760;48.822;9.304;2022-08-06T15:55:55;25.20;60.20
1534;DHT22;760;48.822;9.304;2022-08-06T15:58:21;25.20;60.00
1534;DHT22;760;48.822;9.304;2022-08-06T16:00:47;25.30;60.40
1534;DHT22;760;48.822;9.304;2022-08-06T16:03:12;25.30;60.10
1534;DHT22;760;48.822;9.304;2022-08-06T16:05:41;25.30;59.90
1534;DHT22;760;48.822;9.304;2022-08-06T16:08:08;25.30;60.00
1534;DHT22;760;48.822;9.304;2022-08-06T16:10:39;25.20;60.60
1534;DHT22;760;48.822;9.304;2022-08-06T16:13:05;25.20;59.70
1534;DHT22;760;48.822;9.304;2022-08-06T16:15:31;25.10;59.90
1534;DHT22;760;48.822;9.304;2022-08-06T16:17:56;25.10;60.30
1534;DHT22;760;48.822;9.304;2022-08-06T16:20:22;25.10;59.20
1534;DHT22;760;48.822;9.304;2022-08-06T16:22:49;25.10;59.30
1534;DHT22;760;48.822;9.304;2022-08-06T16:25:14;25.10;59.50
1534;DHT22;760;48.822;9.304;2022-08-06T16:27:41;25.10;59.30
1534;DHT22;760;48.822;9.304;2022-08-06T16:30:07;25.10;59.30
1534;DHT22;760;48.822;9.304;2022-08-06T16:32:33;25.10;59.50
1534;DHT22;760;48.822;9.304;2022-08-06T16:34:59;25.10;59.30
1534;DHT22;760;48.822;9.304;2022-08-06T16:37:25;25.20;59.00
1534;DHT22;760;48.822;9.304;2022-08-06T16:39:53;25.10;58.70
1534;DHT22;760;48.822;9.304;2022-08-06T16:42:19;25.10;58.50
1534;DHT22;760;48.822;9.304;2022-08-06T16:44:45;25.10;58.40
1534;DHT22;760;48.822;9.304;2022-08-06T16:47:10;25.00;58.50
1534;DHT22;760;48.822;9.304;2022-08-06T16:49:36;25.00;58.70
1534;DHT22;760;48.822;9.304;2022-08-06T16:52:02;25.00;58.70
1534;DHT22;760;48.822;9.304;2022-08-06T16:54:28;25.00;58.70
1534;DHT22;760;48.822;9.304;2022-08-06T16:56:54;25.00;58.40
1534;DHT22;760;48.822;9.304;2022-08-06T16:59:19;24.90;58.40
1534;DHT22;760;48.822;9.304;2022-08-06T17:01:45;24.90;58.20
1534;DHT22;760;48.822;9.304;2022-08-06T17:04:30;24.90;58.40
1534;DHT22;760;48.822;9.304;2022-08-06T17:06:56;24.90;58.00
1534;DHT22;760;48.822;9.304;2022-08-06T17:09:22;24.80;58.10
1534;DHT22;760;48.822;9.304;2022-08-06T17:11:48;24.80;57.00
1534;DHT22;760;48.822;9.304;2022-08-06T17:14:14;24.80;56.60
1534;DHT22;760;48.822;9.304;2022-08-06T17:16:41;24.80;56.20
1534;DHT22;760;48.822;9.304;2022-08-06T17:19:07;24.70;56.00
1534;DHT22;760;48.822;9.304;2022-08-06T17:21:33;24.70;56.40
1534;DHT22;760;48.822;9.304;2022-08-06T17:23:59;24.70;56.60
1534;DHT22;760;48.822;9.304;2022-08-06T17:26:27;24.60;56.70
1534;DHT22;760;48.822;9.304;2022-08-06T17:28:52;24.60;56.30
1534;DHT22;760;48.822;9.304;2022-08-06T17:31:18;24.60;55.70
1534;DHT22;760;48.822;9.304;2022-08-06T17:33:43;24.60;55.10
1534;DHT22;760;48.822;9.304;2022-08-06T17:36:09;24.50;55.20
1534;DHT22;760;48.822;9.304;2022-08-06T17:38:35;24.50;55.60
1534;DHT22;760;48.822;9.304;2022-08-06T17:41:00;24.50;55.20
1534;DHT22;760;48.822;9.304;2022-08-06T17:43:26;24.40;54.60
1534;DHT22;760;48.822;9.304;2022-08-06T17:45:51;24.40;54.20
1534;DHT22;760;48.822;9.304;2022-08-06T17:48:17;24.30;54.10
1534;DHT22;760;48.822;9.304;2022-08-06T17:50:43;24.30;54.10
1534;DHT22;760;48.822;9.304;2022-08-06T17:53:12;24.20;53.70
1534;DHT22;760;48.822;9.304;2022-08-06T17:55:38;24.10;53.90
1534;DHT22;760;48.822;9.304;2022-08-06T17:58:04;24.10;53.80
1534;DHT22;760;48.822;9.304;2022-08-06T18:00:31;24.00;53.90
1534;DHT22;760;48.822;9.304;2022-08-06T18:02:56;24.00;54.30
1534;DHT22;760;48.822;9.304;2022-08-06T18:05:22;23.90;54.40
1534;DHT22;760;48.822;9.304;2022-08-06T18:07:48;23.90;54.20
1534;DHT22;760;48.822;9.304;2022-08-06T18:10:14;23.80;54.20
1534;DHT22;760;48.822;9.304;2022-08-06T18:12:52;23.80;54.20
1534;DHT22;760;48.822;9.304;2022-08-06T18:15:19;23.70;54.10
1534;DHT22;760;48.822;9.304;2022-08-06T18:17:46;23.70;54.30
1534;DHT22;760;48.822;9.304;2022-08-06T18:20:11;23.70;53.90
1534;DHT22;760;48.822;9.304;2022-08-06T18:22:37;23.60;54.20
1534;DHT22;760;48.822;9.304;2022-08-06T18:25:03;23.50;53.60
1534;DHT22;760;48.822;9.304;2022-08-06T18:27:29;23.40;53.60
1534;DHT22;760;48.822;9.304;2022-08-06T18:29:55;23.40;53.40
1534;DHT22;760;48.822;9.304;2022-08-06T18:32:21;23.30;53.00
1534;DHT22;760;48.822;9.304;2022-08-06T18:34:47;23.30;53.00
1534;DHT22;760;48.822;9.304;2022-08-06T18:37:13;23.20;53.20
1534;DHT22;760;48.822;9.304;2022-08-06T18:39:39;23.10;53.20
1534;DHT22;760;48.822;9.304;2022-08-06T18:42:05;23.10;53.60
1534;DHT22;760;48.822;9.304;2022-08-06T18:44:31;23.00;53.20
1534;DHT22;760;48.822;9.304;2022-08-06T18:46:57;22.90;53.20
1534;DHT22;760;48.822;9.304;2022-08-06T18:49:23;22.80;53.30
1534;DHT22;760;48.822;9.304;2022-08-06T18:51:49;22.70;53.20
1534;DHT22;760;48.822;9.304;2022-08-06T18:54:15;22.70;53.90
1534;DHT22;760;48.822;9.304;2022-08-06T18:56:41;22.60;53.40
1534;DHT22;760;48.822;9.304;2022-08-06T18:59:07;22.50;53.50
1534;DHT22;760;48.822;9.304;2022-08-06T19:01:33;22.50;53.30
1534;DHT22;760;48.822;9.304;2022-08-06T19:04:02;22.40;53.50
1534;DHT22;760;48.822;9.304;2022-08-06T19:06:28;22.40;53.60
1534;DHT22;760;48.822;9.304;2022-08-06T19:08:54;22.30;53.50
1534;DHT22;760;48.822;9.304;2022-08-06T19:11:20;22.30;53.80
1534;DHT22;760;48.822;9.304;2022-08-06T19:13:46;22.20;54.00
1534;DHT22;760;48.822;9.304;2022-08-06T19:16:15;22.10;54.00
1534;DHT22;760;48.822;9.304;2022-08-06T19:18:40;22.00;54.10
1534;DHT22;760;48.822;9.304;2022-08-06T19:21:06;21.90;54.10
1534;DHT22;760;48.822;9.304;2022-08-06T19:23:32;21.90;54.60
1534;DHT22;760;48.822;9.304;2022-08-06T19:25:58;21.80;54.70
1534;DHT22;760;48.822;9.304;2022-08-06T19:28:23;21.70;54.80
1534;DHT22;760;48.822;9.304;2022-08-06T19:30:49;21.60;55.70
1534;DHT22;760;48.822;9.304;2022-08-06T19:33:15;21.50;55.20
1534;DHT22;760;48.822;9.304;2022-08-06T19:35:40;21.50;55.40
1534;DHT22;760;48.822;9.304;2022-08-06T19:38:06;21.40;55.30
1534;DHT22;760;48.822;9.304;2022-08-06T19:40:33;21.30;55.30
1534;DHT22;760;48.822;9.304;2022-08-06T19:43:12;21.30;55.80
1534;DHT22;760;48.822;9.304;2022-08-06T19:45:37;21.20;55.60
1534;DHT22;760;48.822;9.304;2022-08-06T19:48:03;21.10;55.50
1534;DHT22;760;48.822;9.304;2022-08-06T19:50:29;21.00;55.60
1534;DHT22;760;48.822;9.304;2022-08-06T19:52:54;21.00;56.00
1534;DHT22;760;48.822;9.304;2022-08-06T19:55:20;21.00;56.00
1534;DHT22;760;48.822;9.304;2022-08-06T19:57:46;20.90;55.90
1534;DHT22;760;48.822;9.304;2022-08-06T20:00:12;20.80;55.90
1534;DHT22;760;48.822;9.304;2022-08-06T20:02:37;20.80;56.00
1534;DHT22;760;48.822;9.304;2022-08-06T20:05:03;20.80;56.10
1534;DHT22;760;48.822;9.304;2022-08-06T20:07:29;20.70;56.70
1534;DHT22;760;48.822;9.304;2022-08-06T20:09:56;20.60;57.00
1534;DHT22;760;48.822;9.304;2022-08-06T20:12:21;20.60;57.30
1534;DHT22;760;48.822;9.304;2022-08-06T20:14:47;20.50;57.20
1534;DHT22;760;48.822;9.304;2022-08-06T20:17:13;20.40;57.90
1534;DHT22;760;48.822;9.304;2022-08-06T20:19:38;20.40;57.50
1534;DHT22;760;48.822;9.304;2022-08-06T20:22:04;20.30;58.00
1534;DHT22;760;48.822;9.304;2022-08-06T20:24:30;20.10;58.40
1534;DHT22;760;48.822;9.304;2022-08-06T20:26:55;20.10;58.20
1534;DHT22;760;48.822;9.304;2022-08-06T20:29:21;20.00;58.30
1534;DHT22;760;48.822;9.304;2022-08-06T20:31:47;19.90;59.10
1534;DHT22;760;48.822;9.304;2022-08-06T20:34:13;19.70;58.40
1534;DHT22;760;48.822;9.304;2022-08-06T20:36:39;19.70;58.40
1534;DHT22;760;48.822;9.304;2022-08-06T20:39:04;19.60;59.50
1534;DHT22;760;48.822;9.304;2022-08-06T20:41:30;19.50;60.80
1534;DHT22;760;48.822;9.304;2022-08-06T20:43:56;19.40;61.20
1534;DHT22;760;48.822;9.304;2022-08-06T20:46:28;19.40;62.30
1534;DHT22;760;48.822;9.304;2022-08-06T20:48:53;19.30;61.80
1534;DHT22;760;48.822;9.304;2022-08-06T20:51:19;19.30;62.50
1534;DHT22;760;48.822;9.304;2022-08-06T20:53:44;19.20;63.10
1534;DHT22;760;48.822;9.304;2022-08-06T20:56:10;19.20;61.70
1534;DHT22;760;48.822;9.304;2022-08-06T20:58:35;19.10;61.20
1534;DHT22;760;48.822;9.304;2022-08-06T21:01:01;19.10;62.50
1534;DHT22;760;48.822;9.304;2022-08-06T21:03:27;19.10;63.20
1534;DHT22;760;48.822;9.304;2022-08-06T21:05:52;19.10;63.40
1534;DHT22;760;48.822;9.304;2022-08-06T21:08:19;19.00;65.00
1534;DHT22;760;48.822;9.304;2022-08-06T21:10:45;19.00;66.50
1534;DHT22;760;48.822;9.304;2022-08-06T21:13:11;18.90;66.10
1534;DHT22;760;48.822;9.304;2022-08-06T21:15:37;18.90;65.60
1534;DHT22;760;48.822;9.304;2022-08-06T21:18:03;18.80;64.70
1534;DHT22;760;48.822;9.304;2022-08-06T21:20:28;18.80;64.30
1534;DHT22;760;48.822;9.304;2022-08-06T21:22:54;18.70;64.40